ヨハネスブルグ の空港の天気 - METARとTAF

ヨハネスブルグ/O.R.タンボ国際空港 ( FAOR / JNB ) - 南アフリカ ヨハネスブルグ
飛行場実況気象(Metar)
観測時間07/29 04:30 SAST (07/29 02:30 UTC)
風向・風速西 3m/s
視程10km以上
天気現象
なし
気温10℃
湿度40%
気圧1027hPa
METARFAOR 290230Z 26006KT 230V290 CAVOK 10/M03 Q1027 NOSIG
過去の天気等 Google飛行場航空写真 Wunderground天気予報

過去48時間のMETAR

飛行場予報(TAF)
発表時間: 7/29 00:00 SAST (7/28 22:00 UTC)
予報対象時間: 29日2時 SAST ~ 30日8時 SAST
風向・風速不定 2m/s
視程10km以上
なし
29日9時 SAST ~ 29日11時 SAST に徐々に
風向・風速南 6m/s
30日1時 SAST ~ 30日3時 SAST に徐々に
風向・風速東 5m/s
TAF FAOR 282200Z 2900/3006 VRB03KT CAVOK TX18/2913Z TN05/2905Z
BECMG 2907/2909 18011KT
BECMG 2923/3001 10010KT